sensor_id;sensor_type;location;lat;lon;timestamp;temperature;humidity
79140;HTU21D;68546;59.142;37.948;2023-05-20T00:02:01;12.07;59.70
79140;HTU21D;68546;59.142;37.948;2023-05-20T00:04:28;12.07;59.54
79140;HTU21D;68546;59.142;37.948;2023-05-20T00:06:54;12.06;59.83
79140;HTU21D;68546;59.142;37.948;2023-05-20T00:09:20;12.06;59.71
79140;HTU21D;68546;59.142;37.948;2023-05-20T00:11:46;12.05;59.96
79140;HTU21D;68546;59.142;37.948;2023-05-20T00:14:12;12.05;59.80
79140;HTU21D;68546;59.142;37.948;2023-05-20T00:16:39;12.03;59.82
79140;HTU21D;68546;59.142;37.948;2023-05-20T00:19:06;12.04;59.91
79140;HTU21D;68546;59.142;37.948;2023-05-20T00:21:32;12.03;60.02
79140;HTU21D;68546;59.142;37.948;2023-05-20T00:23:59;12.02;60.09
79140;HTU21D;68546;59.142;37.948;2023-05-20T00:26:25;12.03;60.09
79140;HTU21D;68546;59.142;37.948;2023-05-20T00:28:53;12.03;60.16
79140;HTU21D;68546;59.142;37.948;2023-05-20T00:31:20;12.03;60.31
79140;HTU21D;68546;59.142;37.948;2023-05-20T00:33:46;12.03;60.57
79140;HTU21D;68546;59.142;37.948;2023-05-20T00:36:12;12.02;60.48
79140;HTU21D;68546;59.142;37.948;2023-05-20T00:38:39;12.01;60.51
79140;HTU21D;68546;59.142;37.948;2023-05-20T00:41:05;12.03;60.76
79140;HTU21D;68546;59.142;37.948;2023-05-20T00:43:32;12.02;60.64
79140;HTU21D;68546;59.142;37.948;2023-05-20T00:45:59;12.01;60.70
79140;HTU21D;68546;59.142;37.948;2023-05-20T00:48:28;12.01;60.74
79140;HTU21D;68546;59.142;37.948;2023-05-20T00:50:57;12.01;60.73
79140;HTU21D;68546;59.142;37.948;2023-05-20T00:53:24;12.01;60.67
79140;HTU21D;68546;59.142;37.948;2023-05-20T00:55:50;12.01;60.72
79140;HTU21D;68546;59.142;37.948;2023-05-20T00:58:17;12.01;60.74
79140;HTU21D;68546;59.142;37.948;2023-05-20T01:00:43;12.01;60.81
79140;HTU21D;68546;59.142;37.948;2023-05-20T01:03:09;12.02;60.89
79140;HTU21D;68546;59.142;37.948;2023-05-20T01:05:36;12.02;60.90
79140;HTU21D;68546;59.142;37.948;2023-05-20T01:08:02;12.02;60.93
79140;HTU21D;68546;59.142;37.948;2023-05-20T01:10:29;12.03;60.90
79140;HTU21D;68546;59.142;37.948;2023-05-20T01:12:58;12.03;61.04
79140;HTU21D;68546;59.142;37.948;2023-05-20T01:15:27;12.04;60.99
79140;HTU21D;68546;59.142;37.948;2023-05-20T01:17:57;12.04;61.17
79140;HTU21D;68546;59.142;37.948;2023-05-20T01:20:27;12.04;61.55
79140;HTU21D;68546;59.142;37.948;2023-05-20T01:22:55;12.04;61.34
79140;HTU21D;68546;59.142;37.948;2023-05-20T01:25:23;12.03;61.29
79140;HTU21D;68546;59.142;37.948;2023-05-20T01:27:51;12.02;61.28
79140;HTU21D;68546;59.142;37.948;2023-05-20T01:30:18;12.02;61.34
79140;HTU21D;68546;59.142;37.948;2023-05-20T01:32:53;12.02;61.44
79140;HTU21D;68546;59.142;37.948;2023-05-20T01:35:21;12.01;61.43
79140;HTU21D;68546;59.142;37.948;2023-05-20T01:37:51;12.02;61.48
79140;HTU21D;68546;59.142;37.948;2023-05-20T01:40:18;12.03;61.48
79140;HTU21D;68546;59.142;37.948;2023-05-20T01:42:45;12.02;61.62
79140;HTU21D;68546;59.142;37.948;2023-05-20T01:45:18;12.03;61.73
79140;HTU21D;68546;59.142;37.948;2023-05-20T01:47:45;12.04;61.65
79140;HTU21D;68546;59.142;37.948;2023-05-20T01:50:11;12.05;61.88
79140;HTU21D;68546;59.142;37.948;2023-05-20T01:52:38;12.04;61.78
79140;HTU21D;68546;59.142;37.948;2023-05-20T01:55:04;12.06;61.83
79140;HTU21D;68546;59.142;37.948;2023-05-20T01:57:31;12.05;62.01
79140;HTU21D;68546;59.142;37.948;2023-05-20T01:59:57;12.06;61.87
79140;HTU21D;68546;59.142;37.948;2023-05-20T02:02:24;12.06;61.89
79140;HTU21D;68546;59.142;37.948;2023-05-20T02:04:53;12.07;61.90
79140;HTU21D;68546;59.142;37.948;2023-05-20T02:07:19;12.07;61.85
79140;HTU21D;68546;59.142;37.948;2023-05-20T02:09:46;12.08;61.89
79140;HTU21D;68546;59.142;37.948;2023-05-20T02:12:12;12.08;61.87
79140;HTU21D;68546;59.142;37.948;2023-05-20T02:14:46;12.11;61.98
79140;HTU21D;68546;59.142;37.948;2023-05-20T02:17:15;12.11;61.96
79140;HTU21D;68546;59.142;37.948;2023-05-20T02:19:44;12.12;61.91
79140;HTU21D;68546;59.142;37.948;2023-05-20T02:22:10;12.13;61.93
79140;HTU21D;68546;59.142;37.948;2023-05-20T02:24:37;12.14;62.13
79140;HTU21D;68546;59.142;37.948;2023-05-20T02:27:03;12.15;62.05
79140;HTU21D;68546;59.142;37.948;2023-05-20T02:29:33;12.16;62.00
79140;HTU21D;68546;59.142;37.948;2023-05-20T02:32:00;12.17;62.00
79140;HTU21D;68546;59.142;37.948;2023-05-20T02:34:27;12.17;62.05
79140;HTU21D;68546;59.142;37.948;2023-05-20T02:36:55;12.19;62.12
79140;HTU21D;68546;59.142;37.948;2023-05-20T02:39:21;12.20;62.29
79140;HTU21D;68546;59.142;37.948;2023-05-20T02:41:49;12.21;62.19
79140;HTU21D;68546;59.142;37.948;2023-05-20T02:44:16;12.23;62.35
79140;HTU21D;68546;59.142;37.948;2023-05-20T02:46:43;12.25;62.35
79140;HTU21D;68546;59.142;37.948;2023-05-20T02:49:09;12.26;62.32
79140;HTU21D;68546;59.142;37.948;2023-05-20T02:51:36;12.27;62.37
79140;HTU21D;68546;59.142;37.948;2023-05-20T02:54:03;12.28;62.37
79140;HTU21D;68546;59.142;37.948;2023-05-20T02:56:29;12.30;62.55
79140;HTU21D;68546;59.142;37.948;2023-05-20T02:58:57;12.31;62.51
79140;HTU21D;68546;59.142;37.948;2023-05-20T03:01:23;12.33;62.44
79140;HTU21D;68546;59.142;37.948;2023-05-20T03:03:50;12.36;62.64
79140;HTU21D;68546;59.142;37.948;2023-05-20T03:06:16;12.36;62.57
79140;HTU21D;68546;59.142;37.948;2023-05-20T03:08:42;12.37;62.71
79140;HTU21D;68546;59.142;37.948;2023-05-20T03:11:08;12.38;62.66
79140;HTU21D;68546;59.142;37.948;2023-05-20T03:13:35;12.41;62.61
79140;HTU21D;68546;59.142;37.948;2023-05-20T03:16:01;12.41;62.60
79140;HTU21D;68546;59.142;37.948;2023-05-20T03:18:28;12.43;62.57
79140;HTU21D;68546;59.142;37.948;2023-05-20T03:20:54;12.46;62.60
79140;HTU21D;68546;59.142;37.948;2023-05-20T03:23:21;12.48;62.55
79140;HTU21D;68546;59.142;37.948;2023-05-20T03:25:47;12.50;62.49
79140;HTU21D;68546;59.142;37.948;2023-05-20T03:28:13;12.50;62.48
79140;HTU21D;68546;59.142;37.948;2023-05-20T03:30:41;12.52;62.37
79140;HTU21D;68546;59.142;37.948;2023-05-20T03:33:09;12.52;62.37
79140;HTU21D;68546;59.142;37.948;2023-05-20T03:35:35;12.57;62.39
79140;HTU21D;68546;59.142;37.948;2023-05-20T03:38:01;12.58;62.39
79140;HTU21D;68546;59.142;37.948;2023-05-20T03:40:28;12.59;62.34
79140;HTU21D;68546;59.142;37.948;2023-05-20T03:42:54;12.61;62.24
79140;HTU21D;68546;59.142;37.948;2023-05-20T03:45:21;12.63;62.23
79140;HTU21D;68546;59.142;37.948;2023-05-20T03:48:04;12.65;62.28
79140;HTU21D;68546;59.142;37.948;2023-05-20T03:50:32;12.66;62.28
79140;HTU21D;68546;59.142;37.948;2023-05-20T03:52:59;12.71;62.27
79140;HTU21D;68546;59.142;37.948;2023-05-20T03:55:27;12.71;62.21
79140;HTU21D;68546;59.142;37.948;2023-05-20T03:57:53;12.74;62.23
79140;HTU21D;68546;59.142;37.948;2023-05-20T04:00:20;12.76;62.17
79140;HTU21D;68546;59.142;37.948;2023-05-20T04:02:48;12.80;62.15
79140;HTU21D;68546;59.142;37.948;2023-05-20T04:05:17;12.84;62.15
79140;HTU21D;68546;59.142;37.948;2023-05-20T04:07:43;12.87;62.14
79140;HTU21D;68546;59.142;37.948;2023-05-20T04:10:12;12.90;62.05
79140;HTU21D;68546;59.142;37.948;2023-05-20T04:12:38;12.91;61.88
79140;HTU21D;68546;59.142;37.948;2023-05-20T04:15:06;12.93;61.80
79140;HTU21D;68546;59.142;37.948;2023-05-20T04:17:40;12.96;61.79
79140;HTU21D;68546;59.142;37.948;2023-05-20T04:20:07;13.00;61.78
79140;HTU21D;68546;59.142;37.948;2023-05-20T04:22:36;13.03;61.67
79140;HTU21D;68546;59.142;37.948;2023-05-20T04:25:05;13.04;61.63
79140;HTU21D;68546;59.142;37.948;2023-05-20T04:27:32;13.09;61.57
79140;HTU21D;68546;59.142;37.948;2023-05-20T04:29:59;13.12;61.45
79140;HTU21D;68546;59.142;37.948;2023-05-20T04:32:30;13.17;61.43
79140;HTU21D;68546;59.142;37.948;2023-05-20T04:34:57;13.20;61.33
79140;HTU21D;68546;59.142;37.948;2023-05-20T04:37:24;13.32;61.43
79140;HTU21D;68546;59.142;37.948;2023-05-20T04:39:51;13.50;61.44
79140;HTU21D;68546;59.142;37.948;2023-05-20T04:42:17;13.69;61.15
79140;HTU21D;68546;59.142;37.948;2023-05-20T04:44:45;13.83;60.52
79140;HTU21D;68546;59.142;37.948;2023-05-20T04:47:11;13.99;60.41
79140;HTU21D;68546;59.142;37.948;2023-05-20T04:49:38;14.17;59.67
79140;HTU21D;68546;59.142;37.948;2023-05-20T04:52:06;14.32;59.69
79140;HTU21D;68546;59.142;37.948;2023-05-20T04:54:32;14.47;58.47
79140;HTU21D;68546;59.142;37.948;2023-05-20T04:56:59;14.51;57.94
79140;HTU21D;68546;59.142;37.948;2023-05-20T04:59:25;14.55;57.85
79140;HTU21D;68546;59.142;37.948;2023-05-20T05:01:51;14.60;57.48
79140;HTU21D;68546;59.142;37.948;2023-05-20T05:04:18;14.63;56.93
79140;HTU21D;68546;59.142;37.948;2023-05-20T05:06:46;14.63;56.95
79140;HTU21D;68546;59.142;37.948;2023-05-20T05:09:14;14.64;56.75
79140;HTU21D;68546;59.142;37.948;2023-05-20T05:11:42;14.65;56.35
79140;HTU21D;68546;59.142;37.948;2023-05-20T05:14:08;14.62;56.52
79140;HTU21D;68546;59.142;37.948;2023-05-20T05:16:35;14.62;56.28
79140;HTU21D;68546;59.142;37.948;2023-05-20T05:19:01;14.59;55.92
79140;HTU21D;68546;59.142;37.948;2023-05-20T05:21:30;14.56;56.09
79140;HTU21D;68546;59.142;37.948;2023-05-20T05:23:57;14.54;56.13
79140;HTU21D;68546;59.142;37.948;2023-05-20T05:26:24;14.53;55.96
79140;HTU21D;68546;59.142;37.948;2023-05-20T05:28:53;14.54;56.04
79140;HTU21D;68546;59.142;37.948;2023-05-20T05:31:20;14.54;56.14
79140;HTU21D;68546;59.142;37.948;2023-05-20T05:33:46;14.57;56.13
79140;HTU21D;68546;59.142;37.948;2023-05-20T05:36:14;14.60;56.20
79140;HTU21D;68546;59.142;37.948;2023-05-20T05:38:41;14.64;56.25
79140;HTU21D;68546;59.142;37.948;2023-05-20T05:41:08;14.68;55.82
79140;HTU21D;68546;59.142;37.948;2023-05-20T05:43:34;14.71;55.95
79140;HTU21D;68546;59.142;37.948;2023-05-20T05:46:01;14.75;55.52
79140;HTU21D;68546;59.142;37.948;2023-05-20T05:48:28;14.77;55.32
79140;HTU21D;68546;59.142;37.948;2023-05-20T05:50:54;14.79;54.98
79140;HTU21D;68546;59.142;37.948;2023-05-20T05:53:21;14.82;54.33
79140;HTU21D;68546;59.142;37.948;2023-05-20T05:55:48;14.81;54.42
79140;HTU21D;68546;59.142;37.948;2023-05-20T05:58:15;14.86;54.49
79140;HTU21D;68546;59.142;37.948;2023-05-20T06:00:42;14.87;54.50
79140;HTU21D;68546;59.142;37.948;2023-05-20T06:03:09;14.91;54.23
79140;HTU21D;68546;59.142;37.948;2023-05-20T06:05:36;14.95;54.20
79140;HTU21D;68546;59.142;37.948;2023-05-20T06:08:03;14.98;54.23
79140;HTU21D;68546;59.142;37.948;2023-05-20T06:10:32;15.04;54.00
79140;HTU21D;68546;59.142;37.948;2023-05-20T06:12:59;15.07;53.53
79140;HTU21D;68546;59.142;37.948;2023-05-20T06:15:26;15.07;53.44
79140;HTU21D;68546;59.142;37.948;2023-05-20T06:17:52;15.09;53.59
79140;HTU21D;68546;59.142;37.948;2023-05-20T06:20:19;15.14;53.45
79140;HTU21D;68546;59.142;37.948;2023-05-20T06:22:45;15.21;53.70
79140;HTU21D;68546;59.142;37.948;2023-05-20T06:25:13;15.32;53.57
79140;HTU21D;68546;59.142;37.948;2023-05-20T06:27:40;15.47;53.23
79140;HTU21D;68546;59.142;37.948;2023-05-20T06:30:09;15.59;52.84
79140;HTU21D;68546;59.142;37.948;2023-05-20T06:32:36;15.70;53.02
79140;HTU21D;68546;59.142;37.948;2023-05-20T06:35:03;15.83;52.58
79140;HTU21D;68546;59.142;37.948;2023-05-20T06:37:29;15.96;52.56
79140;HTU21D;68546;59.142;37.948;2023-05-20T06:39:56;16.07;52.24
79140;HTU21D;68546;59.142;37.948;2023-05-20T06:42:23;16.17;51.86
79140;HTU21D;68546;59.142;37.948;2023-05-20T06:45:02;16.27;51.55
79140;HTU21D;68546;59.142;37.948;2023-05-20T06:47:54;16.35;50.65
79140;HTU21D;68546;59.142;37.948;2023-05-20T06:50:21;16.39;50.26
79140;HTU21D;68546;59.142;37.948;2023-05-20T06:52:47;16.45;50.43
79140;HTU21D;68546;59.142;37.948;2023-05-20T06:55:16;16.54;50.60
79140;HTU21D;68546;59.142;37.948;2023-05-20T06:57:43;16.63;50.34
79140;HTU21D;68546;59.142;37.948;2023-05-20T07:00:11;16.73;50.10
79140;HTU21D;68546;59.142;37.948;2023-05-20T07:02:41;16.84;49.69
79140;HTU21D;68546;59.142;37.948;2023-05-20T07:05:09;16.92;49.59
79140;HTU21D;68546;59.142;37.948;2023-05-20T07:07:36;16.99;48.86
79140;HTU21D;68546;59.142;37.948;2023-05-20T07:10:03;17.05;48.76
79140;HTU21D;68546;59.142;37.948;2023-05-20T07:12:31;17.11;48.32
79140;HTU21D;68546;59.142;37.948;2023-05-20T07:14:58;17.17;48.41
79140;HTU21D;68546;59.142;37.948;2023-05-20T07:17:26;17.24;48.02
79140;HTU21D;68546;59.142;37.948;2023-05-20T07:19:55;17.31;47.86
79140;HTU21D;68546;59.142;37.948;2023-05-20T07:22:21;17.36;47.26
79140;HTU21D;68546;59.142;37.948;2023-05-20T07:24:56;17.41;47.01
79140;HTU21D;68546;59.142;37.948;2023-05-20T07:27:22;17.49;47.10
79140;HTU21D;68546;59.142;37.948;2023-05-20T07:29:49;17.56;46.62
79140;HTU21D;68546;59.142;37.948;2023-05-20T07:32:15;17.61;45.91
79140;HTU21D;68546;59.142;37.948;2023-05-20T07:34:42;17.66;45.96
79140;HTU21D;68546;59.142;37.948;2023-05-20T07:37:08;17.74;44.99
79140;HTU21D;68546;59.142;37.948;2023-05-20T07:39:37;17.78;45.17
79140;HTU21D;68546;59.142;37.948;2023-05-20T07:42:05;17.84;45.14
79140;HTU21D;68546;59.142;37.948;2023-05-20T07:44:32;17.90;44.85
79140;HTU21D;68546;59.142;37.948;2023-05-20T07:46:58;17.98;44.22
79140;HTU21D;68546;59.142;37.948;2023-05-20T07:49:25;18.03;43.90
79140;HTU21D;68546;59.142;37.948;2023-05-20T07:51:51;18.03;43.45
79140;HTU21D;68546;59.142;37.948;2023-05-20T07:54:18;18.05;43.69
79140;HTU21D;68546;59.142;37.948;2023-05-20T07:56:48;18.10;43.13
79140;HTU21D;68546;59.142;37.948;2023-05-20T07:59:14;18.07;42.96
79140;HTU21D;68546;59.142;37.948;2023-05-20T08:01:43;18.03;43.33
79140;HTU21D;68546;59.142;37.948;2023-05-20T08:04:12;18.00;43.65
79140;HTU21D;68546;59.142;37.948;2023-05-20T08:06:39;18.02;43.68
79140;HTU21D;68546;59.142;37.948;2023-05-20T08:09:11;18.03;43.91
79140;HTU21D;68546;59.142;37.948;2023-05-20T08:11:43;18.09;43.73
79140;HTU21D;68546;59.142;37.948;2023-05-20T08:14:09;18.11;43.84
79140;HTU21D;68546;59.142;37.948;2023-05-20T08:16:41;18.19;43.54
79140;HTU21D;68546;59.142;37.948;2023-05-20T08:19:08;18.21;43.13
79140;HTU21D;68546;59.142;37.948;2023-05-20T08:21:35;18.24;42.96
79140;HTU21D;68546;59.142;37.948;2023-05-20T08:24:03;18.27;42.19
79140;HTU21D;68546;59.142;37.948;2023-05-20T08:26:31;18.30;42.18
79140;HTU21D;68546;59.142;37.948;2023-05-20T08:28:57;18.33;42.03
79140;HTU21D;68546;59.142;37.948;2023-05-20T08:31:23;18.36;41.97
79140;HTU21D;68546;59.142;37.948;2023-05-20T08:33:50;18.40;41.84
79140;HTU21D;68546;59.142;37.948;2023-05-20T08:36:17;18.41;41.55
79140;HTU21D;68546;59.142;37.948;2023-05-20T08:38:44;18.44;41.24
79140;HTU21D;68546;59.142;37.948;2023-05-20T08:41:11;18.40;40.50
79140;HTU21D;68546;59.142;37.948;2023-05-20T08:43:40;18.32;40.70
79140;HTU21D;68546;59.142;37.948;2023-05-20T08:46:07;18.22;40.36
79140;HTU21D;68546;59.142;37.948;2023-05-20T08:48:35;18.13;40.39
79140;HTU21D;68546;59.142;37.948;2023-05-20T08:51:02;18.08;40.35
79140;HTU21D;68546;59.142;37.948;2023-05-20T08:53:29;18.05;40.24
79140;HTU21D;68546;59.142;37.948;2023-05-20T08:55:59;18.03;40.23
79140;HTU21D;68546;59.142;37.948;2023-05-20T08:58:28;17.99;40.24
79140;HTU21D;68546;59.142;37.948;2023-05-20T09:00:55;17.95;40.04
79140;HTU21D;68546;59.142;37.948;2023-05-20T09:03:21;17.91;39.95
79140;HTU21D;68546;59.142;37.948;2023-05-20T09:05:49;17.88;40.01
79140;HTU21D;68546;59.142;37.948;2023-05-20T09:08:15;17.83;39.84
79140;HTU21D;68546;59.142;37.948;2023-05-20T09:10:42;17.78;39.94
79140;HTU21D;68546;59.142;37.948;2023-05-20T09:13:09;17.78;39.94
79140;HTU21D;68546;59.142;37.948;2023-05-20T09:15:36;17.78;40.24
79140;HTU21D;68546;59.142;37.948;2023-05-20T09:18:05;17.81;39.92
79140;HTU21D;68546;59.142;37.948;2023-05-20T09:20:36;17.82;39.83
79140;HTU21D;68546;59.142;37.948;2023-05-20T09:23:05;17.84;39.43
79140;HTU21D;68546;59.142;37.948;2023-05-20T09:25:32;17.81;39.75
79140;HTU21D;68546;59.142;37.948;2023-05-20T09:27:59;17.81;39.69
79140;HTU21D;68546;59.142;37.948;2023-05-20T09:30:25;17.85;39.91
79140;HTU21D;68546;59.142;37.948;2023-05-20T09:32:56;17.92;39.57
79140;HTU21D;68546;59.142;37.948;2023-05-20T09:35:24;17.93;39.52
79140;HTU21D;68546;59.142;37.948;2023-05-20T09:37:55;17.96;39.75
79140;HTU21D;68546;59.142;37.948;2023-05-20T09:40:26;17.99;39.94
79140;HTU21D;68546;59.142;37.948;2023-05-20T09:42:56;18.02;39.92
79140;HTU21D;68546;59.142;37.948;2023-05-20T09:45:22;17.97;40.10
79140;HTU21D;68546;59.142;37.948;2023-05-20T09:47:50;17.96;40.24
79140;HTU21D;68546;59.142;37.948;2023-05-20T09:50:19;17.99;40.68
79140;HTU21D;68546;59.142;37.948;2023-05-20T09:52:52;18.08;40.41
79140;HTU21D;68546;59.142;37.948;2023-05-20T09:55:20;18.13;40.26
79140;HTU21D;68546;59.142;37.948;2023-05-20T09:57:47;18.20;40.32
79140;HTU21D;68546;59.142;37.948;2023-05-20T10:00:15;18.29;40.36
79140;HTU21D;68546;59.142;37.948;2023-05-20T10:02:49;18.39;39.85
79140;HTU21D;68546;59.142;37.948;2023-05-20T10:05:19;18.44;39.94
79140;HTU21D;68546;59.142;37.948;2023-05-20T10:10:48;18.50;39.27
79140;HTU21D;68546;59.142;37.948;2023-05-20T10:19:08;18.47;38.95
79140;HTU21D;68546;59.142;37.948;2023-05-20T10:21:39;18.51;38.87
79140;HTU21D;68546;59.142;37.948;2023-05-20T10:24:09;18.58;39.21
79140;HTU21D;68546;59.142;37.948;2023-05-20T10:26:40;18.69;39.31
79140;HTU21D;68546;59.142;37.948;2023-05-20T10:29:19;18.83;39.34
79140;HTU21D;68546;59.142;37.948;2023-05-20T10:31:49;18.87;39.11
79140;HTU21D;68546;59.142;37.948;2023-05-20T10:34:21;18.92;38.95
79140;HTU21D;68546;59.142;37.948;2023-05-20T10:39:30;18.96;38.42
79140;HTU21D;68546;59.142;37.948;2023-05-20T10:42:10;18.95;38.27
79140;HTU21D;68546;59.142;37.948;2023-05-20T10:44:45;18.97;38.08
79140;HTU21D;68546;59.142;37.948;2023-05-20T10:47:12;18.99;38.22
79140;HTU21D;68546;59.142;37.948;2023-05-20T10:49:43;19.05;38.23
79140;HTU21D;68546;59.142;37.948;2023-05-20T10:52:12;19.13;38.16
79140;HTU21D;68546;59.142;37.948;2023-05-20T10:54:43;19.17;38.19
79140;HTU21D;68546;59.142;37.948;2023-05-20T10:57:10;19.20;37.92
79140;HTU21D;68546;59.142;37.948;2023-05-20T10:59:37;19.25;37.81
79140;HTU21D;68546;59.142;37.948;2023-05-20T11:02:03;19.30;37.88
79140;HTU21D;68546;59.142;37.948;2023-05-20T11:04:31;19.39;38.05
79140;HTU21D;68546;59.142;37.948;2023-05-20T11:06:57;19.47;37.53
79140;HTU21D;68546;59.142;37.948;2023-05-20T11:09:24;19.52;37.59
79140;HTU21D;68546;59.142;37.948;2023-05-20T11:11:52;19.55;36.82
79140;HTU21D;68546;59.142;37.948;2023-05-20T11:14:18;19.56;36.98
79140;HTU21D;68546;59.142;37.948;2023-05-20T11:16:45;19.60;36.88
79140;HTU21D;68546;59.142;37.948;2023-05-20T11:19:15;19.67;36.72
79140;HTU21D;68546;59.142;37.948;2023-05-20T11:21:42;19.72;36.63
79140;HTU21D;68546;59.142;37.948;2023-05-20T11:24:09;19.69;36.05
79140;HTU21D;68546;59.142;37.948;2023-05-20T11:26:36;19.66;36.05
79140;HTU21D;68546;59.142;37.948;2023-05-20T11:29:02;19.58;36.32
79140;HTU21D;68546;59.142;37.948;2023-05-20T11:31:30;19.54;36.55
79140;HTU21D;68546;59.142;37.948;2023-05-20T11:34:00;19.48;36.54
79140;HTU21D;68546;59.142;37.948;2023-05-20T11:36:27;19.47;36.74
79140;HTU21D;68546;59.142;37.948;2023-05-20T11:38:58;19.50;36.87
79140;HTU21D;68546;59.142;37.948;2023-05-20T11:41:26;19.52;36.90
79140;HTU21D;68546;59.142;37.948;2023-05-20T11:43:59;19.55;37.04
79140;HTU21D;68546;59.142;37.948;2023-05-20T11:46:26;19.57;36.98
79140;HTU21D;68546;59.142;37.948;2023-05-20T11:48:53;19.57;36.78
79140;HTU21D;68546;59.142;37.948;2023-05-20T11:51:27;19.55;36.92
79140;HTU21D;68546;59.142;37.948;2023-05-20T11:54:04;19.56;37.08
79140;HTU21D;68546;59.142;37.948;2023-05-20T11:56:36;19.58;37.03
79140;HTU21D;68546;59.142;37.948;2023-05-20T11:59:08;19.59;37.09
79140;HTU21D;68546;59.142;37.948;2023-05-20T12:01:36;19.61;36.87
79140;HTU21D;68546;59.142;37.948;2023-05-20T12:04:04;19.65;36.35
79140;HTU21D;68546;59.142;37.948;2023-05-20T12:06:31;19.67;36.21
79140;HTU21D;68546;59.142;37.948;2023-05-20T12:09:00;19.69;36.15
79140;HTU21D;68546;59.142;37.948;2023-05-20T12:11:40;19.74;36.27
79140;HTU21D;68546;59.142;37.948;2023-05-20T12:14:07;19.77;36.40
79140;HTU21D;68546;59.142;37.948;2023-05-20T12:16:34;19.82;36.34
79140;HTU21D;68546;59.142;37.948;2023-05-20T12:19:01;19.88;36.21
79140;HTU21D;68546;59.142;37.948;2023-05-20T12:21:28;19.91;35.95
79140;HTU21D;68546;59.142;37.948;2023-05-20T12:23:57;19.95;35.75
79140;HTU21D;68546;59.142;37.948;2023-05-20T12:26:28;19.97;35.67
79140;HTU21D;68546;59.142;37.948;2023-05-20T12:28:55;19.96;35.74
79140;HTU21D;68546;59.142;37.948;2023-05-20T12:31:21;20.01;35.79
79140;HTU21D;68546;59.142;37.948;2023-05-20T12:33:47;20.01;35.44
79140;HTU21D;68546;59.142;37.948;2023-05-20T12:36:14;20.01;35.53
79140;HTU21D;68546;59.142;37.948;2023-05-20T12:38:40;19.99;35.44
79140;HTU21D;68546;59.142;37.948;2023-05-20T12:41:06;19.95;35.40
79140;HTU21D;68546;59.142;37.948;2023-05-20T12:43:34;19.88;35.35
79140;HTU21D;68546;59.142;37.948;2023-05-20T12:46:02;19.82;35.48
79140;HTU21D;68546;59.142;37.948;2023-05-20T12:48:28;19.77;35.70
79140;HTU21D;68546;59.142;37.948;2023-05-20T12:50:54;19.72;35.85
79140;HTU21D;68546;59.142;37.948;2023-05-20T12:53:21;19.70;35.81
79140;HTU21D;68546;59.142;37.948;2023-05-20T12:55:47;19.68;35.48
79140;HTU21D;68546;59.142;37.948;2023-05-20T12:58:13;19.65;35.63
79140;HTU21D;68546;59.142;37.948;2023-05-20T13:00:39;19.67;35.73
79140;HTU21D;68546;59.142;37.948;2023-05-20T13:03:06;19.69;35.81
79140;HTU21D;68546;59.142;37.948;2023-05-20T13:05:32;19.71;35.71
79140;HTU21D;68546;59.142;37.948;2023-05-20T13:07:58;19.71;35.82
79140;HTU21D;68546;59.142;37.948;2023-05-20T13:10:24;19.73;36.00
79140;HTU21D;68546;59.142;37.948;2023-05-20T13:12:52;19.76;36.08
79140;HTU21D;68546;59.142;37.948;2023-05-20T13:15:18;19.80;36.10
79140;HTU21D;68546;59.142;37.948;2023-05-20T13:17:44;19.85;36.19
79140;HTU21D;68546;59.142;37.948;2023-05-20T13:20:11;19.92;36.10
79140;HTU21D;68546;59.142;37.948;2023-05-20T13:22:37;20.00;35.89
79140;HTU21D;68546;59.142;37.948;2023-05-20T13:25:04;20.06;35.66
79140;HTU21D;68546;59.142;37.948;2023-05-20T13:27:31;20.11;35.36
79140;HTU21D;68546;59.142;37.948;2023-05-20T13:29:57;20.13;35.24
79140;HTU21D;68546;59.142;37.948;2023-05-20T13:32:24;20.13;35.14
79140;HTU21D;68546;59.142;37.948;2023-05-20T13:34:50;20.12;34.99
79140;HTU21D;68546;59.142;37.948;2023-05-20T13:37:16;20.10;35.14
79140;HTU21D;68546;59.142;37.948;2023-05-20T13:39:43;20.09;35.21
79140;HTU21D;68546;59.142;37.948;2023-05-20T13:42:09;20.11;35.33
79140;HTU21D;68546;59.142;37.948;2023-05-20T13:44:35;20.13;35.31
79140;HTU21D;68546;59.142;37.948;2023-05-20T13:47:01;20.14;35.19
79140;HTU21D;68546;59.142;37.948;2023-05-20T13:49:28;20.12;35.04
79140;HTU21D;68546;59.142;37.948;2023-05-20T13:51:54;20.11;35.08
79140;HTU21D;68546;59.142;37.948;2023-05-20T13:54:20;20.10;35.16
79140;HTU21D;68546;59.142;37.948;2023-05-20T13:56:48;20.05;35.08
79140;HTU21D;68546;59.142;37.948;2023-05-20T13:59:14;20.03;35.08
79140;HTU21D;68546;59.142;37.948;2023-05-20T14:01:40;19.99;35.17
79140;HTU21D;68546;59.142;37.948;2023-05-20T14:04:10;19.94;35.20
79140;HTU21D;68546;59.142;37.948;2023-05-20T14:06:38;19.92;35.17
79140;HTU21D;68546;59.142;37.948;2023-05-20T14:09:05;19.88;35.31
79140;HTU21D;68546;59.142;37.948;2023-05-20T14:11:33;19.84;35.42
79140;HTU21D;68546;59.142;37.948;2023-05-20T14:13:59;19.80;35.47
79140;HTU21D;68546;59.142;37.948;2023-05-20T14:16:26;19.76;35.46
79140;HTU21D;68546;59.142;37.948;2023-05-20T14:18:52;19.70;35.53
79140;HTU21D;68546;59.142;37.948;2023-05-20T14:21:19;19.62;35.69
79140;HTU21D;68546;59.142;37.948;2023-05-20T14:23:46;19.57;35.69
79140;HTU21D;68546;59.142;37.948;2023-05-20T14:26:12;19.52;35.76
79140;HTU21D;68546;59.142;37.948;2023-05-20T14:28:39;19.46;35.76
79140;HTU21D;68546;59.142;37.948;2023-05-20T14:31:06;19.43;35.74
79140;HTU21D;68546;59.142;37.948;2023-05-20T14:33:32;19.39;35.89
79140;HTU21D;68546;59.142;37.948;2023-05-20T14:35:59;19.37;35.94
79140;HTU21D;68546;59.142;37.948;2023-05-20T14:38:25;19.31;35.99
79140;HTU21D;68546;59.142;37.948;2023-05-20T14:40:52;19.29;36.13
79140;HTU21D;68546;59.142;37.948;2023-05-20T14:43:18;19.28;36.16
79140;HTU21D;68546;59.142;37.948;2023-05-20T14:45:44;19.28;36.29
79140;HTU21D;68546;59.142;37.948;2023-05-20T14:48:11;19.28;36.34
79140;HTU21D;68546;59.142;37.948;2023-05-20T14:50:37;19.29;36.44
79140;HTU21D;68546;59.142;37.948;2023-05-20T14:53:04;19.33;36.50
79140;HTU21D;68546;59.142;37.948;2023-05-20T14:55:30;19.40;36.55
79140;HTU21D;68546;59.142;37.948;2023-05-20T14:57:57;19.46;36.63
79140;HTU21D;68546;59.142;37.948;2023-05-20T15:00:23;19.50;36.41
79140;HTU21D;68546;59.142;37.948;2023-05-20T15:02:49;19.53;36.19
79140;HTU21D;68546;59.142;37.948;2023-05-20T15:05:16;19.54;35.97
79140;HTU21D;68546;59.142;37.948;2023-05-20T15:07:43;19.52;35.76
79140;HTU21D;68546;59.142;37.948;2023-05-20T15:10:09;19.48;35.67
79140;HTU21D;68546;59.142;37.948;2023-05-20T15:12:35;19.45;35.75
79140;HTU21D;68546;59.142;37.948;2023-05-20T15:15:02;19.42;35.79
79140;HTU21D;68546;59.142;37.948;2023-05-20T15:17:28;19.40;35.88